Time;durP1;ratioP1;P1;durP2;ratioP2;P2;SDS_P1;SDS_P2;PMS_P1;PMS_P2;Temp;Humidity;BMP_temperature;BMP_pressure;BME280_temperature;BME280_humidity;BME280_pressure;Samples;Min_cycle;Max_cycle;Signal;HPM_P1;HPM_P2
2022/10/07 00:04:24;;;;;;;26.90;14.40;;;;;;;7.33;95.53;100146.77;215127;1278;22733;-74
2022/10/07 00:09:26;;;;;;;26.90;15.70;;;;;;;7.27;95.60;100146.42;214732;1309;22696;-74
2022/10/07 00:14:28;;;;;;;27.60;14.60;;;;;;;7.21;95.67;100145.27;214973;1285;25389;-74
2022/10/07 00:19:31;;;;;;;26.00;13.80;;;;;;;7.15;95.72;100142.96;215190;1283;22466;-74
2022/10/07 00:24:33;;;;;;;25.10;14.70;;;;;;;7.10;95.87;100141.89;215108;1277;22510;-73
2022/10/07 00:29:34;;;;;;;32.40;16.70;;;;;;;7.06;96.12;100134.48;215093;1306;22514;-74
2022/10/07 00:34:36;;;;;;;28.40;15.00;;;;;;;7.04;96.59;100133.50;215061;1290;25459;-74
2022/10/07 00:39:38;;;;;;;29.20;16.70;;;;;;;7.05;96.71;100130.73;215065;1292;25467;-74
2022/10/07 00:44:42;;;;;;;32.60;19.00;;;;;;;7.09;96.97;100129.91;215294;1277;24221;-74
2022/10/07 00:49:57;;;;;;;34.70;18.70;;;;;;;7.11;97.26;100127.84;215078;1306;22528;-74
2022/10/07 00:55:04;;;;;;;34.70;19.40;;;;;;;7.17;97.54;100122.27;215112;1291;22526;-74
2022/10/07 01:00:06;;;;;;;35.90;19.10;;;;;;;7.18;97.56;100118.19;215054;1292;25010;-74
2022/10/07 01:05:13;;;;;;;40.20;19.70;;;;;;;7.15;97.70;100113.39;215165;1283;22601;-74
2022/10/07 01:10:20;;;;;;;39.50;21.40;;;;;;;7.12;97.57;100109.31;215119;1278;23266;-74
2022/10/07 01:15:35;;;;;;;40.90;21.10;;;;;;;7.08;97.87;100105.12;215185;1284;24425;-73
2022/10/07 01:21:08;;;;;;;33.40;18.60;;;;;;;7.06;97.94;100101.13;215108;1306;22538;-73
2022/10/07 01:26:13;;;;;;;35.20;18.90;;;;;;;7.04;98.25;100098.10;215019;1278;22492;-73
2022/10/07 01:31:20;;;;;;;29.60;18.40;;;;;;;7.01;98.21;100092.36;215157;1306;25334;-74
2022/10/07 01:36:23;;;;;;;45.20;19.50;;;;;;;6.99;98.15;100091.08;215084;1285;25434;-75
2022/10/07 01:41:26;;;;;;;35.20;18.80;;;;;;;6.99;98.25;100089.77;214947;1288;22488;-75
2022/10/07 01:46:29;;;;;;;35.90;18.60;;;;;;;6.97;98.51;100078.23;215170;1282;22482;-74
2022/10/07 01:51:39;;;;;;;32.30;17.70;;;;;;;6.95;98.46;100079.52;215188;1306;22464;-74
2022/10/07 01:56:59;;;;;;;39.80;18.70;;;;;;;6.92;98.48;100073.63;215350;1291;22633;-74
2022/10/07 02:02:50;;;;;;;30.60;16.80;;;;;;;6.89;98.44;100071.07;215151;1301;22463;-74
2022/10/07 02:07:57;;;;;;;30.50;15.60;;;;;;;6.88;98.87;100063.21;215048;1306;100373;-75
2022/10/07 02:13:13;;;;;;;32.30;17.40;;;;;;;6.87;98.83;100060.27;215168;1291;25582;-75
2022/10/07 02:18:19;;;;;;;32.00;17.50;;;;;;;6.84;98.84;100063.34;214992;1284;24209;-74
2022/10/07 02:23:23;;;;;;;31.30;17.60;;;;;;;6.80;99.09;100062.45;215308;1277;22567;-73
2022/10/07 02:28:26;;;;;;;25.60;14.80;;;;;;;6.77;99.13;100062.48;215542;1298;22479;-75
2022/10/07 02:33:31;;;;;;;28.20;15.60;;;;;;;6.74;99.11;100054.86;215242;1291;25367;-74
2022/10/07 02:38:34;;;;;;;30.50;16.90;;;;;;;6.68;99.20;100047.96;215136;1297;25423;-74
2022/10/07 02:43:40;;;;;;;32.90;18.10;;;;;;;6.63;99.24;100050.67;215379;1298;25461;-73
2022/10/07 02:48:59;;;;;;;30.00;15.90;;;;;;;6.60;99.19;100048.04;215071;1305;25440;-75
2022/10/07 02:54:03;;;;;;;33.40;16.30;;;;;;;6.57;99.15;100046.65;215326;1290;22540;-73
2022/10/07 02:59:09;;;;;;;27.60;15.60;;;;;;;6.55;99.33;100044.10;215132;1306;22483;-74
2022/10/07 03:04:12;;;;;;;35.00;16.20;;;;;;;6.53;99.43;100038.45;215401;1290;22448;-74
2022/10/07 03:09:15;;;;;;;34.60;17.80;;;;;;;6.51;99.53;100035.23;215257;1290;22502;-74
2022/10/07 03:14:17;;;;;;;39.90;17.70;;;;;;;6.48;99.08;100029.30;215319;1289;24432;-74
2022/10/07 03:19:20;;;;;;;47.40;18.90;;;;;;;6.46;99.45;100026.10;215108;1301;23258;-74
2022/10/07 03:24:30;;;;;;;37.30;16.70;;;;;;;6.43;99.41;100020.45;214974;1301;22479;-74
2022/10/07 03:29:36;;;;;;;37.00;18.50;;;;;;;6.40;99.49;100019.84;215026;1291;22646;-73
2022/10/07 03:34:38;;;;;;;31.80;17.30;;;;;;;6.35;99.31;100011.05;215259;1285;22522;-75
2022/10/07 03:39:40;;;;;;;30.80;17.80;;;;;;;6.30;99.41;100007.08;215180;1297;22466;-75
2022/10/07 03:44:45;;;;;;;33.00;18.00;;;;;;;6.24;99.60;100005.41;215271;1291;22468;-73
2022/10/07 03:49:47;;;;;;;33.40;18.40;;;;;;;6.18;99.52;100003.02;215127;1306;22574;-75
2022/10/07 03:54:49;;;;;;;33.30;17.80;;;;;;;6.11;99.45;99995.59;215142;1285;22536;-75
2022/10/07 03:59:52;;;;;;;37.10;18.60;;;;;;;6.06;99.40;100001.59;215143;1306;25456;-74
2022/10/07 04:04:54;;;;;;;36.20;17.70;;;;;;;6.02;99.45;99996.66;215195;1291;22480;-74
2022/10/07 04:09:57;;;;;;;33.30;17.50;;;;;;;6.00;99.63;99994.55;215017;1306;25255;-74
2022/10/07 04:15:00;;;;;;;27.40;16.00;;;;;;;5.97;99.53;99990.88;215254;1284;22463;-75
2022/10/07 04:20:04;;;;;;;28.60;14.20;;;;;;;5.95;99.68;99982.33;215179;1285;22526;-75
2022/10/07 04:30:33;;;;;;;26.20;14.60;;;;;;;5.89;99.64;99971.21;215228;1290;22507;-74
2022/10/07 04:35:39;;;;;;;29.70;15.70;;;;;;;5.87;99.63;99973.27;215165;1287;22473;-74
2022/10/07 04:40:49;;;;;;;37.10;17.20;;;;;;;5.88;99.92;99967.38;215155;1306;23101;-74
2022/10/07 04:46:01;;;;;;;28.80;16.30;;;;;;;5.92;99.94;99961.40;215069;1299;22477;-75
2022/10/07 04:51:06;;;;;;;27.10;16.30;;;;;;;5.93;100.00;99959.41;215351;1298;22479;-74
2022/10/07 04:56:10;;;;;;;34.60;19.00;;;;;;;5.93;100.00;99953.48;215342;1299;22483;-75
2022/10/07 05:01:12;;;;;;;24.80;15.40;;;;;;;5.93;100.00;99947.75;215246;1288;25429;-75
2022/10/07 05:06:18;;;;;;;18.50;11.80;;;;;;;5.97;100.00;99945.20;215229;1278;22467;-75
2022/10/07 05:11:20;;;;;;;32.20;15.50;;;;;;;6.03;100.00;99944.71;215085;1291;24405;-74
2022/10/07 05:16:27;;;;;;;30.60;16.70;;;;;;;6.11;100.00;99946.71;215165;1284;22466;-74
2022/10/07 05:21:29;;;;;;;31.40;16.40;;;;;;;6.15;100.00;99951.96;215056;1306;24353;-75
2022/10/07 05:26:31;;;;;;;24.10;14.40;;;;;;;6.18;100.00;99949.59;215280;1306;22599;-75
2022/10/07 05:31:33;;;;;;;33.70;17.00;;;;;;;6.22;100.00;99947.41;215280;1298;22596;-75
2022/10/07 05:36:37;;;;;;;28.90;16.30;;;;;;;6.28;100.00;99949.26;215199;1297;22508;-76
2022/10/07 05:41:40;;;;;;;28.10;15.90;;;;;;;6.35;100.00;99944.98;215121;1300;22481;-75
2022/10/07 05:46:48;;;;;;;31.00;16.90;;;;;;;6.42;100.00;99944.19;215528;1281;22576;-76
2022/10/07 05:51:50;;;;;;;27.50;16.60;;;;;;;6.50;100.00;99934.67;215521;1288;25700;-76
2022/10/07 05:56:53;;;;;;;36.90;18.70;;;;;;;6.63;100.00;99937.98;215735;1277;22637;-76
2022/10/07 06:01:58;;;;;;;32.80;18.90;;;;;;;6.74;100.00;99937.00;215322;1277;22524;-76
2022/10/07 06:07:02;;;;;;;29.10;17.20;;;;;;;6.84;100.00;99936.12;215675;1279;22467;-76
2022/10/07 06:17:26;;;;;;;31.80;17.80;;;;;;;7.20;100.00;99941.80;216444;1280;22462;-77
2022/10/07 06:22:30;;;;;;;34.90;18.40;;;;;;;7.43;100.00;99938.02;215638;1277;22489;-78
2022/10/07 06:27:33;;;;;;;30.30;17.30;;;;;;;7.71;100.00;99935.89;215619;1277;22531;-76
2022/10/07 06:32:35;;;;;;;29.80;17.50;;;;;;;7.92;100.00;99938.06;215381;1277;22472;-77
2022/10/07 06:37:38;;;;;;;26.30;17.00;;;;;;;8.08;100.00;99947.65;215517;1281;25460;-76
2022/10/07 06:42:40;;;;;;;20.40;11.80;;;;;;;8.29;100.00;99937.45;215694;1280;22478;-77
2022/10/07 06:47:54;;;;;;;23.20;12.60;;;;;;;8.62;100.00;99928.77;215430;1280;24252;-77
2022/10/07 06:52:56;;;;;;;23.20;13.10;;;;;;;8.93;100.00;99929.42;215399;1277;25295;-78
2022/10/07 06:57:59;;;;;;;18.90;11.10;;;;;;;9.15;100.00;99930.91;215510;1288;25225;-78
2022/10/07 07:03:03;;;;;;;22.40;13.40;;;;;;;9.39;100.00;99925.42;215641;1280;22504;-77
2022/10/07 07:08:05;;;;;;;16.50;10.70;;;;;;;9.62;100.00;99924.37;215578;1280;22462;-78
2022/10/07 07:13:08;;;;;;;18.10;10.30;;;;;;;9.86;100.00;99914.25;215590;1280;22597;-78
2022/10/07 07:18:10;;;;;;;20.30;12.00;;;;;;;10.13;100.00;99915.30;215581;1281;22479;-79
2022/10/07 07:23:13;;;;;;;14.00;9.30;;;;;;;10.38;100.00;99918.01;215504;1285;25278;-79
2022/10/07 07:28:15;;;;;;;19.10;11.70;;;;;;;10.62;100.00;99913.38;215635;1281;22459;-78
2022/10/07 07:33:18;;;;;;;20.80;13.20;;;;;;;10.82;100.00;99907.89;215492;1281;22478;-78
2022/10/07 07:38:20;;;;;;;19.10;13.30;;;;;;;11.01;100.00;99895.95;215573;1277;22506;-79
2022/10/07 07:43:27;;;;;;;20.60;12.00;;;;;;;11.23;100.00;99887.37;215548;1283;22463;-77
2022/10/07 07:48:30;;;;;;;15.90;11.20;;;;;;;11.44;100.00;99883.11;215483;1291;22505;-78
2022/10/07 07:53:33;;;;;;;20.10;13.20;;;;;;;11.69;100.00;99881.79;215616;1285;22470;-77
2022/10/07 07:58:35;;;;;;;15.80;11.20;;;;;;;11.93;100.00;99873.64;215326;1280;24372;-78
2022/10/07 08:03:36;;;;;;;18.80;11.50;;;;;;;12.19;100.00;99866.14;215602;1280;22466;-79
2022/10/07 08:08:42;;;;;;;17.00;9.70;;;;;;;12.49;100.00;99863.00;216036;1303;22464;-78
2022/10/07 08:13:45;;;;;;;14.60;9.50;;;;;;;12.79;100.00;99859.96;215791;1280;22478;-77
2022/10/07 08:18:51;;;;;;;14.40;9.30;;;;;;;13.12;99.81;99858.55;215809;1286;22491;-77
2022/10/07 08:23:56;;;;;;;12.10;8.00;;;;;;;13.39;99.26;99859.95;216030;1285;22511;-76
2022/10/07 08:29:03;;;;;;;14.10;9.00;;;;;;;13.70;98.70;99856.34;215682;1303;22481;-76
2022/10/07 08:34:05;;;;;;;11.70;9.20;;;;;;;13.96;98.17;99860.46;215770;1282;22583;-76
2022/10/07 08:39:07;;;;;;;18.10;12.50;;;;;;;14.17;97.44;99857.02;216039;1285;22624;-75
2022/10/07 08:44:11;;;;;;;18.60;11.70;;;;;;;14.41;97.02;99852.19;215837;1280;22917;-76
2022/10/07 08:49:24;;;;;;;17.30;10.50;;;;;;;14.69;95.70;99854.40;215924;1304;22473;-76
2022/10/07 08:54:32;;;;;;;15.30;10.60;;;;;;;14.96;95.80;99843.42;215909;1301;22490;-75
2022/10/07 08:59:34;;;;;;;12.40;8.70;;;;;;;15.15;95.09;99841.06;216079;1303;24332;-75
2022/10/07 09:05:06;;;;;;;14.80;9.50;;;;;;;15.27;93.88;99838.39;215854;1280;23232;-75
2022/10/07 09:10:07;;;;;;;12.40;9.20;;;;;;;15.47;93.78;99840.84;215978;1294;22553;-76
2022/10/07 09:15:18;;;;;;;13.10;9.70;;;;;;;15.64;93.28;99835.48;215911;1282;25339;-75
2022/10/07 09:20:30;;;;;;;15.00;9.00;;;;;;;15.92;93.40;99835.02;215961;1303;23270;-75
2022/10/07 09:25:33;;;;;;;13.00;8.90;;;;;;;16.31;93.10;99836.02;215936;1280;22465;-76
2022/10/07 09:30:35;;;;;;;13.90;9.10;;;;;;;16.75;92.61;99825.34;216010;1284;24250;-76
2022/10/07 09:35:37;;;;;;;12.40;7.80;;;;;;;17.05;90.99;99828.28;215778;1280;22449;-76
2022/10/07 09:46:03;;;;;;;11.00;8.60;;;;;;;17.50;89.21;99818.55;216056;1277;22468;-76
2022/10/07 09:51:17;;;;;;;12.90;9.90;;;;;;;17.58;86.04;99815.75;215967;1279;24444;-77
2022/10/07 09:56:38;;;;;;;12.40;8.30;;;;;;;17.66;86.51;99809.11;215852;1277;22547;-76
2022/10/07 10:01:40;;;;;;;16.30;9.40;;;;;;;17.99;86.39;99806.17;215937;1275;23324;-77
2022/10/07 10:06:48;;;;;;;10.20;7.60;;;;;;;18.24;85.88;99802.52;215941;1271;25368;-76
2022/10/07 10:12:12;;;;;;;8.30;7.30;;;;;;;18.51;85.55;99794.84;216066;1271;22491;-76
2022/10/07 10:17:23;;;;;;;10.60;8.40;;;;;;;18.74;84.40;99791.50;216120;1277;22522;-76
2022/10/07 10:22:28;;;;;;;10.60;7.50;;;;;;;18.89;83.82;99783.83;215845;1289;22500;-75
2022/10/07 10:27:38;;;;;;;12.40;8.20;;;;;;;19.08;82.25;99782.02;215891;1291;25257;-76
2022/10/07 10:32:56;;;;;;;7.60;6.50;;;;;;;19.09;81.90;99773.30;215941;1285;22481;-76
2022/10/07 10:38:38;;;;;;;14.10;8.10;;;;;;;19.28;81.91;99761.63;215764;1277;22688;-76
2022/10/07 10:44:04;;;;;;;9.10;7.30;;;;;;;19.58;81.90;99755.58;215638;1272;22467;-76
2022/10/07 10:49:33;;;;;;;13.00;8.50;;;;;;;19.70;81.13;99744.48;215635;1281;22509;-76
2022/10/07 10:55:06;;;;;;;10.90;7.20;;;;;;;19.73;80.59;99733.88;215719;1273;24255;-76
2022/10/07 11:00:12;;;;;;;9.20;7.10;;;;;;;19.64;80.10;99726.55;215716;1303;22748;-76
2022/10/07 11:05:42;;;;;;;10.30;6.40;;;;;;;19.67;80.48;99718.37;215705;1278;25320;-77
2022/10/07 11:10:47;;;;;;;;;;;;;;;19.66;79.51;99701.79;215830;1274;27366;-77
2022/10/07 11:16:15;;;;;;;11.50;6.70;;;;;;;19.64;79.56;99689.38;215734;1281;25296;-76
2022/10/07 11:21:29;;;;;;;8.30;6.60;;;;;;;19.66;79.19;99684.63;215703;1282;22492;-76
2022/10/07 11:26:40;;;;;;;12.20;7.90;;;;;;;19.70;79.02;99672.88;215579;1274;23348;-76
2022/10/07 11:31:49;;;;;;;11.60;6.40;;;;;;;19.75;78.72;99668.67;215782;1278;22640;-78
2022/10/07 11:37:07;;;;;;;8.30;5.70;;;;;;;19.86;78.78;99658.33;215773;1281;26740;-78
2022/10/07 11:42:39;;;;;;;6.40;5.60;;;;;;;19.96;78.22;99645.83;215691;1291;22531;-78
2022/10/07 11:48:06;;;;;;;6.40;5.20;;;;;;;20.08;78.12;99633.83;215781;1280;22485;-77
2022/10/07 11:53:18;;;;;;;7.30;5.10;;;;;;;20.20;77.72;99633.35;215881;1274;22476;-78
2022/10/07 11:58:28;;;;;;;5.30;4.10;;;;;;;20.29;77.12;99624.27;215498;1279;22689;-76
2022/10/07 12:03:33;;;;;;;5.10;4.00;;;;;;;20.34;76.24;99618.16;215777;1286;22454;-76
2022/10/07 12:08:43;;;;;;;6.00;4.20;;;;;;;20.34;75.39;99608.68;215664;1281;23035;-75
2022/10/07 12:13:46;;;;;;;;;;;;;;;20.40;75.38;99600.70;215811;1274;22487;-76
2022/10/07 12:19:06;;;;;;;3.80;3.20;;;;;;;20.44;75.46;99595.66;215729;1281;22483;-76
2022/10/07 12:24:14;;;;;;;6.40;4.20;;;;;;;20.50;75.11;99587.31;215877;1280;22413;-79
2022/10/07 12:29:27;;;;;;;8.40;4.50;;;;;;;20.51;73.86;99583.91;215671;1304;22470;-78
2022/10/07 12:34:39;;;;;;;5.60;4.00;;;;;;;20.47;73.70;99574.29;215631;1277;23738;-79
2022/10/07 12:39:41;;;;;;;5.80;3.90;;;;;;;20.55;74.23;99565.17;215656;1281;22731;-77
2022/10/07 12:44:51;;;;;;;5.10;4.60;;;;;;;20.65;74.22;99558.52;215702;1274;23299;-79
2022/10/07 12:49:59;;;;;;;4.90;4.20;;;;;;;20.74;74.40;99553.94;215672;1282;24355;-78
2022/10/07 12:55:15;;;;;;;7.40;5.10;;;;;;;20.81;74.11;99542.84;215795;1280;22470;-79
2022/10/07 13:00:26;;;;;;;5.20;4.50;;;;;;;20.85;73.65;99534.61;215819;1303;22496;-79
2022/10/07 13:05:47;;;;;;;5.90;5.30;;;;;;;20.78;73.17;99529.27;216055;1287;22507;-77
2022/10/07 13:11:04;;;;;;;6.10;5.10;;;;;;;20.80;73.92;99518.52;215789;1288;25443;-78
2022/10/07 13:16:44;;;;;;;5.90;4.80;;;;;;;20.83;73.86;99512.55;215786;1274;23244;-78
2022/10/07 13:22:12;;;;;;;5.50;4.60;;;;;;;20.75;72.51;99497.58;216094;1296;22491;-78
2022/10/07 13:27:24;;;;;;;16.10;12.30;;;;;;;20.70;73.17;99491.19;215759;1278;22525;-78
2022/10/07 13:32:33;;;;;;;7.80;6.40;;;;;;;20.65;72.66;99483.64;215806;1278;22550;-77
2022/10/07 13:37:37;;;;;;;10.40;8.30;;;;;;;20.66;73.21;99477.67;215844;1272;22665;-83
2022/10/07 13:42:39;;;;;;;8.90;7.40;;;;;;;20.71;73.21;99465.70;215919;1272;23265;-76
2022/10/07 13:47:44;;;;;;;6.80;5.80;;;;;;;20.78;73.30;99459.95;216093;1280;25317;-76
2022/10/07 13:52:48;;;;;;;7.40;4.10;;;;;;;20.80;72.90;99451.68;216195;1271;23258;-77
2022/10/07 13:57:56;;;;;;;4.20;3.70;;;;;;;20.76;72.11;99441.90;215673;1274;25590;-76
2022/10/07 14:03:00;;;;;;;6.50;3.70;;;;;;;20.70;72.08;99431.20;215598;1272;24317;-78
2022/10/07 14:08:16;;;;;;;5.70;4.00;;;;;;;20.64;72.26;99419.89;215738;1281;105677;-77
2022/10/07 14:13:18;;;;;;;5.80;4.00;;;;;;;20.60;72.67;99412.83;215633;1281;24335;-77
2022/10/07 14:18:21;;;;;;;4.70;3.70;;;;;;;20.57;72.96;99403.40;215353;1291;25374;-77
2022/10/07 14:23:30;;;;;;;4.90;3.90;;;;;;;20.51;72.52;99392.26;215838;1280;22430;-77
2022/10/07 14:28:37;;;;;;;7.80;5.70;;;;;;;20.41;72.47;99388.74;215486;1304;24227;-77
2022/10/07 14:39:29;;;;;;;19.40;13.60;;;;;;;20.22;72.63;99377.71;215369;1304;24254;-77
2022/10/07 14:44:31;;;;;;;9.60;6.70;;;;;;;20.14;72.68;99372.10;215580;1288;22636;-77
2022/10/07 14:49:33;;;;;;;7.90;5.00;;;;;;;20.05;72.78;99366.42;215394;1304;22512;-77
2022/10/07 14:54:34;;;;;;;19.30;5.80;;;;;;;19.99;73.20;99366.79;215320;1296;23161;-76
2022/10/07 14:59:36;;;;;;;16.50;9.20;;;;;;;19.97;73.56;99358.86;215402;1301;23957;-77
2022/10/07 15:04:39;;;;;;;6.40;4.50;;;;;;;19.96;73.78;99355.18;215431;1280;23899;-77
2022/10/07 15:09:43;;;;;;;6.10;4.60;;;;;;;19.91;73.95;99350.20;215380;1304;24276;-76
2022/10/07 15:14:44;;;;;;;6.70;4.50;;;;;;;19.87;74.34;99348.43;215725;1281;22483;-78
2022/10/07 15:19:46;;;;;;;7.20;5.30;;;;;;;19.86;74.45;99347.23;215437;1304;25286;-76
2022/10/07 15:24:48;;;;;;;5.60;4.80;;;;;;;19.84;74.64;99335.51;215540;1280;22473;-80
2022/10/07 15:29:52;;;;;;;11.70;5.10;;;;;;;19.77;74.74;99332.47;215544;1303;22488;-76
2022/10/07 15:34:56;;;;;;;10.00;4.70;;;;;;;19.63;74.99;99329.50;215476;1274;22593;-76
2022/10/07 15:39:59;;;;;;;8.40;4.70;;;;;;;19.45;75.21;99326.30;215735;1289;22465;-76
2022/10/07 15:45:01;;;;;;;6.40;5.50;;;;;;;19.24;75.56;99326.41;215439;1274;22461;-78
2022/10/07 15:50:04;;;;;;;7.70;5.10;;;;;;;19.02;76.04;99323.77;215450;1304;24331;-77
2022/10/07 15:55:07;;;;;;;10.30;5.40;;;;;;;18.84;76.39;99325.39;215396;1280;22475;-77
2022/10/07 16:00:10;;;;;;;9.50;6.00;;;;;;;18.65;76.59;99321.19;215515;1306;22609;-77
2022/10/07 16:05:15;;;;;;;7.30;5.60;;;;;;;18.43;76.93;99320.26;215757;1297;22936;-77
2022/10/07 16:10:16;;;;;;;9.00;6.10;;;;;;;18.21;77.27;99319.54;215549;1304;25387;-78
2022/10/07 16:15:18;;;;;;;10.70;6.50;;;;;;;18.00;77.72;99315.54;215563;1289;22469;-76
2022/10/07 16:20:20;;;;;;;10.00;6.60;;;;;;;17.80;77.90;99318.77;215457;1303;24254;-77
2022/10/07 16:25:22;;;;;;;13.00;8.30;;;;;;;17.61;78.33;99314.67;215592;1274;22551;-77
2022/10/07 16:30:42;;;;;;;16.00;9.60;;;;;;;17.43;78.42;99305.67;215281;1304;22496;-76
2022/10/07 16:35:44;;;;;;;17.10;10.00;;;;;;;17.24;78.69;99302.47;215678;1280;25256;-79
2022/10/07 16:40:53;;;;;;;17.40;9.80;;;;;;;17.09;79.01;99299.64;215514;1304;26531;-75
2022/10/07 16:46:01;;;;;;;17.10;10.80;;;;;;;16.93;79.02;99302.41;215382;1274;24263;-77
2022/10/07 16:51:05;;;;;;;16.70;9.60;;;;;;;16.74;79.17;99298.05;215406;1306;22471;-77
2022/10/07 16:56:07;;;;;;;15.80;9.40;;;;;;;16.58;79.53;99294.33;215483;1277;24273;-77
2022/10/07 17:01:11;;;;;;;14.80;8.50;;;;;;;16.45;79.75;99295.48;215376;1304;25229;-76
2022/10/07 17:06:15;;;;;;;13.40;7.90;;;;;;;16.30;79.96;99296.42;215601;1274;22525;-76
2022/10/07 17:11:27;;;;;;;14.40;8.00;;;;;;;16.14;80.23;99293.15;215486;1304;22472;-76
2022/10/07 17:16:36;;;;;;;15.50;8.70;;;;;;;15.95;80.56;99287.77;215384;1274;22490;-76
2022/10/07 17:21:40;;;;;;;23.50;13.90;;;;;;;15.81;80.93;99287.57;215479;1304;25676;-78
2022/10/07 17:26:43;;;;;;;17.80;10.10;;;;;;;15.71;81.27;99282.41;215330;1278;22942;-76
2022/10/07 17:31:49;;;;;;;17.10;10.60;;;;;;;15.63;81.58;99281.70;215302;1304;22553;-76
2022/10/07 17:36:52;;;;;;;20.50;10.60;;;;;;;15.53;81.89;99278.83;215768;1274;23259;-76
2022/10/07 17:41:54;;;;;;;19.50;10.50;;;;;;;15.40;82.06;99275.96;215558;1304;25466;-77
2022/10/07 17:47:02;;;;;;;21.20;13.20;;;;;;;15.29;82.24;99283.09;215448;1281;24263;-77
2022/10/07 17:52:04;;;;;;;28.80;18.00;;;;;;;15.18;82.65;99279.45;215396;1304;22517;-77
2022/10/07 17:57:06;;;;;;;40.40;24.60;;;;;;;15.05;82.86;99277.86;215546;1281;22495;-77
2022/10/07 18:02:09;;;;;;;34.70;20.90;;;;;;;14.89;83.17;99269.14;215533;1302;24369;-76
2022/10/07 18:07:12;;;;;;;29.90;18.60;;;;;;;14.72;83.46;99266.70;215433;1277;22520;-77
2022/10/07 18:17:35;;;;;;;21.50;15.40;;;;;;;14.42;84.08;99253.52;215598;1281;22557;-77
2022/10/07 18:22:37;;;;;;;25.80;15.60;;;;;;;14.30;84.40;99247.24;215802;1280;22488;-75
2022/10/07 18:27:39;;;;;;;24.90;15.10;;;;;;;14.17;84.70;99243.55;215542;1281;22693;-75
2022/10/07 18:32:41;;;;;;;22.30;14.20;;;;;;;14.05;84.98;99242.67;215594;1281;25413;-75
2022/10/07 18:37:44;;;;;;;25.10;15.60;;;;;;;13.94;85.32;99240.52;215438;1274;22604;-77
2022/10/07 18:42:46;;;;;;;24.80;16.20;;;;;;;13.84;85.62;99240.09;215652;1274;22583;-77
2022/10/07 18:47:48;;;;;;;28.50;16.30;;;;;;;13.73;85.86;99240.04;215570;1304;24123;-77
2022/10/07 18:52:49;;;;;;;24.50;16.40;;;;;;;13.62;86.17;99235.07;215736;1280;24250;-75
2022/10/07 18:57:51;;;;;;;24.90;16.10;;;;;;;13.52;86.37;99231.16;215612;1288;22606;-76
2022/10/07 19:02:53;;;;;;;24.70;16.10;;;;;;;13.39;86.62;99227.29;215554;1274;26343;-77
2022/10/07 19:07:55;;;;;;;26.40;16.50;;;;;;;13.27;86.94;99225.05;215479;1304;25459;-78
2022/10/07 19:18:21;;;;;;;29.50;18.10;;;;;;;13.00;87.52;99225.20;215740;1304;22520;-77
2022/10/07 19:23:27;;;;;;;32.50;18.90;;;;;;;12.88;87.72;99222.80;215826;1280;22666;-76
2022/10/07 19:28:29;;;;;;;30.10;20.00;;;;;;;12.77;88.01;99218.39;215361;1304;22475;-76
2022/10/07 19:33:33;;;;;;;35.70;20.60;;;;;;;12.66;88.27;99214.74;215371;1281;25219;-76
2022/10/07 19:38:43;;;;;;;31.80;18.70;;;;;;;12.58;88.68;99214.81;215555;1304;22465;-77
2022/10/07 19:43:45;;;;;;;30.50;18.50;;;;;;;12.50;89.08;99212.39;215490;1274;22601;-77
2022/10/07 19:48:47;;;;;;;34.00;19.20;;;;;;;12.44;89.39;99210.59;215370;1305;22475;-75
2022/10/07 19:53:50;;;;;;;30.70;19.20;;;;;;;12.38;89.48;99208.74;215304;1280;22481;-75
2022/10/07 19:58:54;;;;;;;32.00;19.40;;;;;;;12.30;89.81;99205.78;215617;1274;24363;-77
2022/10/07 20:04:08;;;;;;;30.70;20.90;;;;;;;12.23;90.02;99204.15;215716;1288;22486;-76
2022/10/07 20:09:13;;;;;;;30.70;19.30;;;;;;;12.14;90.12;99205.66;215344;1285;22479;-77
2022/10/07 20:14:15;;;;;;;34.10;20.40;;;;;;;12.04;90.19;99203.25;215783;1279;22595;-76
2022/10/07 20:19:17;;;;;;;34.80;19.80;;;;;;;11.95;90.50;99201.15;215577;1297;22607;-77
2022/10/07 20:24:19;;;;;;;32.90;19.80;;;;;;;11.87;90.63;99201.34;215682;1274;24278;-77
2022/10/07 20:29:21;;;;;;;31.80;19.80;;;;;;;11.77;90.96;99192.54;215419;1291;23798;-77
2022/10/07 20:34:26;;;;;;;30.90;20.00;;;;;;;11.70;91.21;99190.84;215736;1280;25295;-76
2022/10/07 20:45:05;;;;;;;34.50;22.90;;;;;;;11.55;91.64;99187.73;215175;1292;24347;-77
2022/10/07 20:50:07;;;;;;;40.40;22.70;;;;;;;11.47;91.90;99185.13;215455;1300;25386;-76
2022/10/07 20:55:12;;;;;;;40.20;22.60;;;;;;;11.42;92.26;99190.70;215673;1274;22508;-77
2022/10/07 21:00:15;;;;;;;46.00;23.50;;;;;;;11.37;92.43;99189.84;215539;1284;24314;-80
2022/10/07 21:05:17;;;;;;;38.00;23.80;;;;;;;11.32;92.51;99193.48;215711;1277;22477;-76
2022/10/07 21:10:19;;;;;;;40.90;22.70;;;;;;;11.26;92.92;99191.92;215446;1300;22545;-77
2022/10/07 21:15:21;;;;;;;39.30;24.90;;;;;;;11.20;92.92;99190.58;215629;1281;25113;-77
2022/10/07 21:20:23;;;;;;;43.50;24.80;;;;;;;11.14;92.96;99187.79;215405;1281;23030;-78
2022/10/07 21:25:25;;;;;;;47.10;27.20;;;;;;;11.08;93.34;99184.63;215691;1278;25556;-76
2022/10/07 21:30:28;;;;;;;48.10;27.70;;;;;;;11.04;93.69;99179.30;215630;1288;22519;-77
2022/10/07 21:35:30;;;;;;;55.10;32.80;;;;;;;11.00;93.81;99182.02;215931;1279;22466;-76
2022/10/07 21:40:33;;;;;;;52.10;29.90;;;;;;;10.97;93.98;99178.66;215372;1300;22915;-77
2022/10/07 21:45:34;;;;;;;53.50;30.80;;;;;;;10.92;94.36;99177.25;215703;1274;22547;-76
2022/10/07 21:50:36;;;;;;;48.40;28.60;;;;;;;10.88;94.27;99167.86;215887;1282;22487;-76
2022/10/07 21:55:38;;;;;;;51.40;28.60;;;;;;;10.83;94.62;99161.61;215771;1277;22507;-78
2022/10/07 22:00:41;;;;;;;50.20;28.30;;;;;;;10.80;94.80;99159.61;215529;1305;25289;-77
2022/10/07 22:05:43;;;;;;;49.90;28.60;;;;;;;10.76;94.92;99156.31;215455;1274;25266;-76
2022/10/07 22:10:44;;;;;;;50.40;28.70;;;;;;;10.73;95.17;99152.45;215360;1297;22767;-75
2022/10/07 22:15:46;;;;;;;52.60;27.90;;;;;;;10.69;95.14;99149.73;215382;1281;22686;-76
2022/10/07 22:20:48;;;;;;;60.90;32.60;;;;;;;10.63;95.38;99146.11;215372;1305;25351;-77
2022/10/07 22:25:51;;;;;;;50.90;30.10;;;;;;;10.59;95.80;99144.81;215378;1280;22568;-76
2022/10/07 22:30:53;;;;;;;49.00;28.50;;;;;;;10.55;95.89;99134.34;215321;1305;22476;-76
2022/10/07 22:35:54;;;;;;;51.10;28.70;;;;;;;10.51;96.13;99137.21;215527;1281;25251;-76
2022/10/07 22:41:05;;;;;;;46.80;28.60;;;;;;;10.48;96.24;99128.18;215636;1285;22516;-76
2022/10/07 22:46:08;;;;;;;42.60;26.20;;;;;;;10.45;96.50;99122.14;215695;1274;22476;-78
2022/10/07 22:51:13;;;;;;;47.10;27.50;;;;;;;10.45;96.81;99116.95;215515;1283;25957;-76
2022/10/07 22:56:17;;;;;;;45.10;28.10;;;;;;;10.42;96.78;99120.67;215979;1281;25546;-77
2022/10/07 23:01:20;;;;;;;47.10;27.80;;;;;;;10.41;96.98;99115.91;215753;1281;22473;-77
2022/10/07 23:06:22;;;;;;;45.30;26.80;;;;;;;10.39;96.90;99113.92;215989;1274;23119;-74
2022/10/07 23:11:25;;;;;;;45.20;26.40;;;;;;;10.36;97.00;99109.62;215842;1271;23742;-76
2022/10/07 23:16:28;;;;;;;43.10;26.10;;;;;;;10.34;97.26;99105.01;215759;1277;22739;-77
2022/10/07 23:21:34;;;;;;;47.50;26.20;;;;;;;10.33;97.32;99100.88;215861;1302;22460;-76
2022/10/07 23:26:37;;;;;;;43.90;24.50;;;;;;;10.33;97.50;99097.88;215637;1277;22461;-76
2022/10/07 23:31:39;;;;;;;51.30;29.20;;;;;;;10.31;97.53;99092.70;215968;1302;22566;-79
2022/10/07 23:36:41;;;;;;;52.50;31.20;;;;;;;10.24;97.32;99086.38;215718;1280;22504;-76
2022/10/07 23:41:42;;;;;;;53.10;31.90;;;;;;;10.17;97.44;99088.67;215746;1287;23214;-77
2022/10/07 23:46:44;;;;;;;51.00;28.90;;;;;;;10.11;97.53;99084.68;215707;1282;23740;-76
2022/10/07 23:51:46;;;;;;;45.60;27.40;;;;;;;10.06;97.79;99082.52;215461;1277;22474;-76
2022/10/07 23:56:48;;;;;;;46.50;28.70;;;;;;;10.01;97.67;99085.05;215918;1282;22505;-77
